createdAt,value
2023-03-29T00:01:36.150Z,100987.38
2023-03-29T00:04:06.473Z,100981.28
2023-03-29T00:06:34.028Z,100975.22
2023-03-29T00:09:01.894Z,100974.34
2023-03-29T00:11:28.424Z,100968.28
2023-03-29T00:13:54.921Z,100959.63
2023-03-29T00:16:21.390Z,100961.38
2023-03-29T00:18:48.313Z,100959.63
2023-03-29T00:21:14.837Z,100953.56
2023-03-29T00:23:41.376Z,100960.50
2023-03-29T00:26:08.372Z,100952.69
2023-03-29T00:28:35.533Z,100954.44
2023-03-29T00:31:07.615Z,100948.38
2023-03-29T00:33:34.657Z,100947.50
2023-03-29T00:36:01.996Z,100943.19
2023-03-29T00:38:28.755Z,100948.38
2023-03-29T00:40:55.217Z,100938.00
2023-03-29T00:43:22.047Z,100940.59
2023-03-29T00:45:48.616Z,100942.31
2023-03-29T00:48:18.210Z,100942.31
2023-03-29T00:50:50.256Z,100946.69
2023-03-29T00:53:35.794Z,100938.88
2023-03-29T00:56:13.972Z,100933.66
2023-03-29T00:59:08.201Z,100930.19
2023-03-29T01:01:44.950Z,100925.00
2023-03-29T01:04:24.030Z,100934.53
2023-03-29T01:06:57.068Z,100927.63
2023-03-29T01:09:27.081Z,100927.63
2023-03-29T01:11:56.783Z,100918.09
2023-03-29T01:14:42.578Z,100918.97
2023-03-29T01:17:09.134Z,100922.44
2023-03-29T01:19:45.404Z,100927.63
2023-03-29T01:22:38.692Z,100917.25
2023-03-29T01:25:16.088Z,100909.44
2023-03-29T01:28:00.629Z,100906.84
2023-03-29T01:30:31.737Z,100899.06
2023-03-29T01:33:27.929Z,100899.94
2023-03-29T01:36:14.034Z,100904.25
2023-03-29T01:38:57.860Z,100889.53
2023-03-29T01:41:47.771Z,100883.50
2023-03-29T01:44:37.498Z,100871.34
2023-03-29T01:47:24.339Z,100873.94
2023-03-29T01:50:06.454Z,100862.69
2023-03-29T01:52:45.739Z,100860.13
2023-03-29T01:55:20.294Z,100851.47
2023-03-29T01:57:48.483Z,100863.59
2023-03-29T02:00:19.181Z,100870.53
2023-03-29T02:02:47.773Z,100873.13
2023-03-29T02:05:16.608Z,100868.78
2023-03-29T02:07:46.118Z,100860.13
2023-03-29T02:10:13.593Z,100864.44
2023-03-29T02:12:40.225Z,100859.25
2023-03-29T02:15:12.818Z,100846.28
2023-03-29T02:17:39.411Z,100852.34
2023-03-29T02:20:17.658Z,100845.41
2023-03-29T02:22:54.397Z,100834.13
2023-03-29T02:25:22.496Z,100837.59
2023-03-29T02:27:49.401Z,100830.69
2023-03-29T02:30:18.450Z,100837.59
2023-03-29T02:33:04.929Z,100828.09
2023-03-29T02:35:36.686Z,100839.34
2023-03-29T02:38:06.388Z,100823.75
2023-03-29T02:40:37.558Z,100823.75
2023-03-29T02:43:06.939Z,100828.97
2023-03-29T02:45:36.025Z,100829.81
2023-03-29T02:48:07.673Z,100828.97
2023-03-29T02:50:38.282Z,100831.59
2023-03-29T02:53:15.188Z,100828.13
2023-03-29T02:55:41.674Z,100837.66
2023-03-29T02:58:08.444Z,100839.41
2023-03-29T03:00:40.793Z,100840.25
2023-03-29T03:03:08.504Z,100839.38
2023-03-29T03:05:36.077Z,100830.72
2023-03-29T03:08:02.776Z,100830.72
2023-03-29T03:10:29.212Z,100832.47
2023-03-29T03:12:55.956Z,100828.13
2023-03-29T03:15:22.532Z,100825.53
2023-03-29T03:17:49.357Z,100821.19
2023-03-29T03:20:16.018Z,100819.47
2023-03-29T03:22:48.648Z,100815.13
2023-03-29T03:25:19.541Z,100818.63
2023-03-29T03:27:46.576Z,100814.28
2023-03-29T03:30:13.439Z,100801.31
2023-03-29T03:32:40.012Z,100800.44
2023-03-29T03:35:07.633Z,100798.69
2023-03-29T03:37:34.097Z,100806.50
2023-03-29T03:40:00.661Z,100812.56
2023-03-29T03:42:28.882Z,100805.63
2023-03-29T03:44:56.050Z,100802.16
2023-03-29T03:47:22.893Z,100800.44
2023-03-29T03:49:49.366Z,100794.34
2023-03-29T03:52:16.342Z,100797.84
2023-03-29T03:54:43.204Z,100796.09
2023-03-29T03:57:09.786Z,100802.19
2023-03-29T03:59:37.091Z,100793.50
2023-03-29T04:02:06.828Z,100796.97
2023-03-29T04:04:34.233Z,100807.34
2023-03-29T04:07:04.867Z,100803.91
2023-03-29T04:09:33.217Z,100803.03
2023-03-29T04:12:01.500Z,100801.31
2023-03-29T04:14:28.319Z,100797.84
2023-03-29T04:16:55.102Z,100793.50
2023-03-29T04:19:21.779Z,100800.44
2023-03-29T04:21:49.537Z,100799.56
2023-03-29T04:24:17.255Z,100797.84
2023-03-29T04:26:44.500Z,100804.75
2023-03-29T04:29:11.160Z,100803.91
2023-03-29T04:31:37.786Z,100803.03
2023-03-29T04:34:04.511Z,100799.59
2023-03-29T04:36:30.937Z,100801.28
2023-03-29T04:38:58.603Z,100790.03
2023-03-29T04:41:25.057Z,100787.44
2023-03-29T04:43:52.137Z,100782.25
2023-03-29T04:46:18.584Z,100772.69
2023-03-29T04:48:45.032Z,100768.38
2023-03-29T04:51:12.402Z,100776.16
2023-03-29T04:53:38.820Z,100770.97
2023-03-29T04:56:06.186Z,100763.16
2023-03-29T04:58:32.901Z,100765.78
2023-03-29T05:00:59.580Z,100757.09
2023-03-29T05:03:27.007Z,100749.31
2023-03-29T05:05:53.638Z,100737.19
2023-03-29T05:08:20.263Z,100744.97
2023-03-29T05:10:47.502Z,100744.09
2023-03-29T05:13:13.894Z,100751.06
2023-03-29T05:15:41.802Z,100741.53
2023-03-29T05:18:08.287Z,100744.09
2023-03-29T05:20:34.801Z,100732.84
2023-03-29T05:23:01.416Z,100723.31
2023-03-29T05:25:28.166Z,100727.69
2023-03-29T05:27:54.600Z,100722.47
2023-03-29T05:30:21.000Z,100719.88
2023-03-29T05:32:48.030Z,100719.00
2023-03-29T05:35:16.556Z,100723.34
2023-03-29T05:37:43.331Z,100713.81
2023-03-29T05:40:10.679Z,100724.19
2023-03-29T05:42:38.595Z,100721.59
2023-03-29T05:45:06.410Z,100720.72
2023-03-29T05:47:33.035Z,100715.53
2023-03-29T05:49:59.446Z,100713.81
2023-03-29T05:52:26.067Z,100716.41
2023-03-29T05:54:52.817Z,100725.06
2023-03-29T05:57:19.410Z,100711.19
2023-03-29T05:59:46.907Z,100716.41
2023-03-29T06:02:15.371Z,100725.06
2023-03-29T06:04:41.942Z,100728.50
2023-03-29T06:07:10.353Z,100731.97
2023-03-29T06:09:36.793Z,100719.88
2023-03-29T06:12:03.996Z,100725.06
2023-03-29T06:14:31.159Z,100721.59
2023-03-29T06:16:57.576Z,100723.31
2023-03-29T06:19:24.286Z,100722.44
2023-03-29T06:21:53.178Z,100719.88
2023-03-29T06:24:20.578Z,100725.06
2023-03-29T06:26:47.065Z,100722.44
2023-03-29T06:29:13.530Z,100729.38
2023-03-29T06:31:40.848Z,100735.44
2023-03-29T06:34:07.887Z,100740.63
2023-03-29T06:36:34.943Z,100740.63
2023-03-29T06:39:01.414Z,100733.69
2023-03-29T06:41:27.887Z,100738.03
2023-03-29T06:43:55.009Z,100750.16
2023-03-29T06:46:21.578Z,100744.97
2023-03-29T06:48:48.333Z,100757.94
2023-03-29T06:51:14.866Z,100755.31
2023-03-29T06:53:41.406Z,100758.81
2023-03-29T06:56:09.752Z,100763.13
2023-03-29T06:58:36.867Z,100750.13
2023-03-29T07:01:04.276Z,100749.25
2023-03-29T07:03:31.517Z,100759.66
2023-03-29T07:06:04.502Z,100748.38
2023-03-29T07:08:31.678Z,100754.41
2023-03-29T07:10:59.273Z,100744.00
2023-03-29T07:13:26.307Z,100762.22
2023-03-29T07:15:52.884Z,100765.69
2023-03-29T07:18:19.770Z,100761.34
2023-03-29T07:20:47.626Z,100773.47
2023-03-29T07:23:14.070Z,100765.69
2023-03-29T07:25:41.018Z,100777.81
2023-03-29T07:28:07.808Z,100776.06
2023-03-29T07:30:34.338Z,100776.06
2023-03-29T07:33:00.900Z,100768.25
2023-03-29T07:35:27.890Z,100767.38
2023-03-29T07:37:58.374Z,100775.16
2023-03-29T07:40:26.054Z,100770.81
2023-03-29T07:42:54.940Z,100771.69
2023-03-29T07:45:26.182Z,100765.59
2023-03-29T07:47:58.102Z,100772.53
2023-03-29T07:50:25.693Z,100770.75
2023-03-29T07:52:52.224Z,100779.44
2023-03-29T07:55:18.863Z,100773.34
2023-03-29T07:57:45.423Z,100782.88
2023-03-29T08:00:16.493Z,100782.88
2023-03-29T08:02:45.194Z,100788.94
2023-03-29T08:05:14.339Z,100790.66
2023-03-29T08:07:45.124Z,100784.59
2023-03-29T08:10:20.244Z,100783.75
2023-03-29T08:12:48.042Z,100782.03
2023-03-29T08:15:15.471Z,100775.09
2023-03-29T08:17:42.939Z,100767.25
2023-03-29T08:20:12.861Z,100779.38
2023-03-29T08:22:39.663Z,100781.13
2023-03-29T08:25:07.446Z,100767.22
2023-03-29T08:27:34.631Z,100772.38
2023-03-29T08:30:01.406Z,100774.09
2023-03-29T08:32:27.841Z,100778.41
2023-03-29T08:34:54.439Z,100774.91
2023-03-29T08:37:21.010Z,100774.91
2023-03-29T08:39:48.525Z,100774.00
2023-03-29T08:42:30.138Z,100777.44
2023-03-29T08:45:14.074Z,100770.47
2023-03-29T08:48:12.424Z,100765.22
2023-03-29T08:50:48.014Z,100764.31
2023-03-29T08:53:24.013Z,100774.69
2023-03-29T08:55:53.254Z,100760.78
2023-03-29T08:58:27.186Z,100754.69
2023-03-29T09:00:57.382Z,100758.13
2023-03-29T09:03:28.990Z,100758.09
2023-03-29T09:06:04.883Z,100749.38
2023-03-29T09:08:31.760Z,100758.88
2023-03-29T09:11:10.896Z,100755.38
2023-03-29T09:14:11.411Z,100760.56
2023-03-29T09:16:53.279Z,100757.94
2023-03-29T09:19:37.646Z,100759.69
2023-03-29T09:22:23.298Z,100762.22
2023-03-29T09:24:56.381Z,100765.69
2023-03-29T09:27:35.096Z,100767.34
2023-03-29T09:30:19.328Z,100768.09
2023-03-29T09:32:53.025Z,100769.75
2023-03-29T09:35:42.930Z,100755.81
2023-03-29T09:38:12.381Z,100753.91
2023-03-29T09:40:44.774Z,100765.13
2023-03-29T09:43:16.852Z,100757.19
2023-03-29T09:45:44.629Z,100758.88
2023-03-29T09:48:17.045Z,100757.97
2023-03-29T09:50:46.854Z,100757.03
2023-03-29T09:53:15.782Z,100758.66
2023-03-29T09:55:44.639Z,100753.38
2023-03-29T09:58:15.242Z,100751.63
2023-03-29T10:00:42.594Z,100755.09
2023-03-29T10:03:10.696Z,100753.25
2023-03-29T10:05:37.956Z,100753.16
2023-03-29T10:08:19.623Z,100754.88
2023-03-29T10:10:47.041Z,100747.88
2023-03-29T10:13:21.027Z,100746.97
2023-03-29T10:15:58.375Z,100738.25
2023-03-29T10:18:26.445Z,100738.09
2023-03-29T10:20:59.644Z,100739.59
2023-03-29T10:23:31.783Z,100745.66
2023-03-29T10:25:58.810Z,100731.66
2023-03-29T10:28:27.932Z,100737.56
2023-03-29T10:30:57.438Z,100725.31
2023-03-29T10:33:28.018Z,100732.28
2023-03-29T10:35:56.666Z,100726.09
2023-03-29T10:38:27.877Z,100726.69
2023-03-29T10:41:02.720Z,100718.91
2023-03-29T10:43:50.738Z,100715.28
2023-03-29T10:46:29.328Z,100721.19
2023-03-29T10:49:06.025Z,100708.56
2023-03-29T10:51:33.283Z,100703.09
2023-03-29T10:54:01.418Z,100702.06
2023-03-29T10:56:41.653Z,100704.44
2023-03-29T10:59:23.906Z,100704.09
2023-03-29T11:02:15.245Z,100704.75
2023-03-29T11:04:48.876Z,100709.81
2023-03-29T11:07:26.437Z,100706.19
2023-03-29T11:09:56.124Z,100696.50
2023-03-29T11:12:42.957Z,100693.88
2023-03-29T11:15:30.792Z,100693.91
2023-03-29T11:18:06.347Z,100697.34
2023-03-29T11:20:41.885Z,100697.03
2023-03-29T11:23:28.244Z,100696.56
2023-03-29T11:26:10.631Z,100696.97
2023-03-29T11:28:56.577Z,100700.75
2023-03-29T11:31:39.362Z,100695.50
2023-03-29T11:34:39.653Z,100693.25
2023-03-29T11:37:22.837Z,100687.59
2023-03-29T11:40:11.267Z,100679.84
2023-03-29T11:42:43.839Z,100685.44
2023-03-29T11:45:17.544Z,100671.59
2023-03-29T11:47:46.589Z,100665.25
2023-03-29T11:50:30.097Z,100664.94
2023-03-29T11:53:02.989Z,100662.31
2023-03-29T11:55:33.385Z,100663.16
2023-03-29T11:58:05.253Z,100656.13
2023-03-29T12:00:38.834Z,100652.69
2023-03-29T12:03:21.962Z,100651.81
2023-03-29T12:05:55.628Z,100655.34
2023-03-29T12:08:28.766Z,100655.28
2023-03-29T12:11:04.473Z,100655.22
2023-03-29T12:13:40.150Z,100652.69
2023-03-29T12:16:41.974Z,100654.13
2023-03-29T12:19:21.706Z,100653.13
2023-03-29T12:21:49.588Z,100643.28
2023-03-29T12:24:18.100Z,100636.03
2023-03-29T12:26:50.641Z,100639.16
2023-03-29T12:29:43.438Z,100625.97
2023-03-29T12:32:40.395Z,100622.19
2023-03-29T12:35:23.609Z,100623.38
2023-03-29T12:38:01.609Z,100625.00
2023-03-29T12:40:35.850Z,100620.59
2023-03-29T12:43:08.885Z,100621.88
2023-03-29T12:45:42.827Z,100612.91
2023-03-29T12:48:27.183Z,100618.09
2023-03-29T12:50:57.249Z,100621.47
2023-03-29T12:53:45.748Z,100626.69
2023-03-29T12:56:23.601Z,100619.03
2023-03-29T12:59:05.385Z,100614.47
2023-03-29T13:01:41.335Z,100616.13
2023-03-29T13:04:22.360Z,100628.06
2023-03-29T13:06:48.836Z,100610.31
2023-03-29T13:09:29.781Z,100614.50
2023-03-29T13:12:08.967Z,100609.00
2023-03-29T13:14:37.948Z,100606.94
2023-03-29T13:17:17.905Z,100600.38
2023-03-29T13:20:03.929Z,100597.44
2023-03-29T13:22:37.750Z,100590.97
2023-03-29T13:25:27.776Z,100592.22
2023-03-29T13:28:13.068Z,100595.13
2023-03-29T13:30:55.170Z,100590.88
2023-03-29T13:33:38.204Z,100588.50
2023-03-29T13:36:37.634Z,100584.34
2023-03-29T13:39:07.076Z,100581.81
2023-03-29T13:41:33.489Z,100590.50
2023-03-29T13:44:00.277Z,100589.41
2023-03-29T13:46:41.071Z,100584.13
2023-03-29T13:49:24.568Z,100578.59
2023-03-29T13:51:54.013Z,100568.69
2023-03-29T13:54:24.691Z,100569.53
2023-03-29T13:57:03.009Z,100560.13
2023-03-29T13:59:49.343Z,100558.97
2023-03-29T14:02:32.802Z,100541.88
2023-03-29T14:05:02.090Z,100530.25
2023-03-29T14:07:32.616Z,100525.69
2023-03-29T14:10:01.137Z,100524.50
2023-03-29T14:12:35.945Z,100521.50
2023-03-29T14:15:05.289Z,100524.03
2023-03-29T14:17:32.570Z,100527.34
2023-03-29T14:20:00.935Z,100521.34
2023-03-29T14:22:33.655Z,100517.09
2023-03-29T14:25:12.502Z,100510.53
2023-03-29T14:27:38.980Z,100510.50
2023-03-29T14:30:37.803Z,100501.03
2023-03-29T14:33:05.262Z,100492.59
2023-03-29T14:35:33.214Z,100492.44
2023-03-29T14:38:00.505Z,100495.72
2023-03-29T14:40:27.749Z,100493.03
2023-03-29T14:42:55.106Z,100501.78
2023-03-29T14:45:23.460Z,100503.63
2023-03-29T14:47:50.886Z,100501.91
2023-03-29T14:50:21.504Z,100499.50
2023-03-29T14:52:52.277Z,100498.63
2023-03-29T14:55:23.413Z,100492.72
2023-03-29T14:57:53.183Z,100483.09
2023-03-29T15:00:38.806Z,100478.75
2023-03-29T15:03:13.490Z,100472.41
2023-03-29T15:05:43.709Z,100480.16
2023-03-29T15:08:17.843Z,100478.31
2023-03-29T15:10:45.175Z,100470.59
2023-03-29T15:13:18.499Z,100466.69
2023-03-29T15:15:46.262Z,100462.06
2023-03-29T15:18:16.726Z,100455.09
2023-03-29T15:20:44.897Z,100454.25
2023-03-29T15:23:14.352Z,100451.81
2023-03-29T15:25:58.378Z,100446.66
2023-03-29T15:28:31.049Z,100443.31
2023-03-29T15:31:32.704Z,100435.56
2023-03-29T15:34:26.360Z,100428.19
2023-03-29T15:36:53.996Z,100433.78
2023-03-29T15:39:20.951Z,100423.41
2023-03-29T15:41:50.188Z,100426.19
2023-03-29T15:44:20.879Z,100414.09
2023-03-29T15:46:47.449Z,100411.44
2023-03-29T15:49:14.829Z,100405.28
2023-03-29T15:51:41.496Z,100400.81
2023-03-29T15:54:09.192Z,100398.44
2023-03-29T15:56:49.765Z,100383.31
2023-03-29T15:59:18.117Z,100380.59
2023-03-29T16:01:44.939Z,100378.69
2023-03-29T16:04:17.434Z,100373.09
2023-03-29T16:06:48.498Z,100382.78
2023-03-29T16:09:18.652Z,100365.28
2023-03-29T16:11:46.368Z,100364.44
2023-03-29T16:14:20.296Z,100368.31
2023-03-29T16:16:47.164Z,100362.28
2023-03-29T16:19:13.790Z,100350.13
2023-03-29T16:21:40.618Z,100350.19
2023-03-29T16:24:13.528Z,100346.59
2023-03-29T16:26:40.046Z,100353.63
2023-03-29T16:29:06.512Z,100338.75
2023-03-29T16:31:33.066Z,100342.06
2023-03-29T16:33:59.558Z,100335.91
2023-03-29T16:36:26.491Z,100338.00
2023-03-29T16:38:53.507Z,100321.28
2023-03-29T16:41:20.026Z,100323.22
2023-03-29T16:43:46.671Z,100319.66
2023-03-29T16:46:13.205Z,100316.44
2023-03-29T16:48:39.727Z,100314.75
2023-03-29T16:51:06.951Z,100318.66
2023-03-29T16:53:34.603Z,100317.84
2023-03-29T16:56:02.727Z,100321.38
2023-03-29T16:58:29.440Z,100318.50
2023-03-29T17:00:57.003Z,100313.03
2023-03-29T17:03:24.304Z,100314.59
2023-03-29T17:05:52.934Z,100314.75
2023-03-29T17:08:21.100Z,100319.91
2023-03-29T17:10:52.947Z,100310.75
2023-03-29T17:13:21.163Z,100303.94
2023-03-29T17:15:48.824Z,100295.53
2023-03-29T17:18:15.463Z,100298.28
2023-03-29T17:20:41.929Z,100291.25
2023-03-29T17:23:08.950Z,100296.41
2023-03-29T17:25:35.799Z,100299.19
2023-03-29T17:28:02.767Z,100301.16
2023-03-29T17:30:29.265Z,100296.97
2023-03-29T17:32:55.967Z,100295.38
2023-03-29T17:35:22.536Z,100304.53
2023-03-29T17:37:49.176Z,100298.41
2023-03-29T17:40:15.703Z,100287.03
2023-03-29T17:42:43.522Z,100280.81
2023-03-29T17:45:10.869Z,100288.66
2023-03-29T17:47:38.552Z,100284.91
2023-03-29T17:50:06.731Z,100285.09
2023-03-29T17:52:33.626Z,100281.84
2023-03-29T17:55:00.275Z,100283.75
2023-03-29T17:57:27.017Z,100278.41
2023-03-29T17:59:53.571Z,100274.00
2023-03-29T18:02:23.778Z,100277.38
2023-03-29T18:04:50.645Z,100270.28
2023-03-29T18:07:17.815Z,100265.28
2023-03-29T18:09:44.297Z,100263.38
2023-03-29T18:12:10.970Z,100255.81
2023-03-29T18:14:37.423Z,100262.97
2023-03-29T18:17:04.119Z,100257.88
2023-03-29T18:19:30.829Z,100262.28
2023-03-29T18:21:57.518Z,100256.81
2023-03-29T18:24:24.012Z,100260.03
2023-03-29T18:26:51.180Z,100256.75
2023-03-29T18:29:17.719Z,100259.94
2023-03-29T18:31:45.823Z,100254.78
2023-03-29T18:34:12.571Z,100254.75
2023-03-29T18:36:39.270Z,100248.78
2023-03-29T18:39:05.907Z,100249.78
2023-03-29T18:41:34.777Z,100248.91
2023-03-29T18:44:01.411Z,100250.72
2023-03-29T18:46:31.715Z,100256.03
2023-03-29T18:48:59.299Z,100264.97
2023-03-29T18:51:27.850Z,100250.13
2023-03-29T18:53:55.960Z,100244.94
2023-03-29T18:56:23.197Z,100241.59
2023-03-29T18:58:49.748Z,100243.19
2023-03-29T19:01:16.347Z,100240.59
2023-03-29T19:03:42.978Z,100248.44
2023-03-29T19:06:09.640Z,100241.66
2023-03-29T19:08:38.682Z,100240.09
2023-03-29T19:11:07.708Z,100231.13
2023-03-29T19:13:34.975Z,100226.78
2023-03-29T19:16:02.432Z,100229.50
2023-03-29T19:18:30.468Z,100229.63
2023-03-29T19:20:57.081Z,100227.13
2023-03-29T19:23:27.155Z,100215.78
2023-03-29T19:26:00.166Z,100216.31
2023-03-29T19:28:27.438Z,100211.03
2023-03-29T19:30:54.798Z,100206.78
2023-03-29T19:33:21.646Z,100210.97
2023-03-29T19:35:51.375Z,100204.66
2023-03-29T19:38:18.994Z,100200.41
2023-03-29T19:40:47.098Z,100206.63
2023-03-29T19:43:16.901Z,100203.25
2023-03-29T19:45:48.652Z,100202.31
2023-03-29T19:48:22.330Z,100189.50
2023-03-29T19:50:50.141Z,100189.53
2023-03-29T19:53:16.871Z,100181.81
2023-03-29T19:55:45.005Z,100187.13
2023-03-29T19:58:11.703Z,100185.44
2023-03-29T20:00:38.942Z,100178.44
2023-03-29T20:03:09.191Z,100173.31
2023-03-29T20:05:38.342Z,100173.94
2023-03-29T20:08:05.352Z,100171.25
2023-03-29T20:10:32.231Z,100172.28
2023-03-29T20:12:58.930Z,100166.28
2023-03-29T20:15:25.889Z,100168.91
2023-03-29T20:17:54.161Z,100153.22
2023-03-29T20:20:24.095Z,100158.41
2023-03-29T20:23:04.388Z,100163.00
2023-03-29T20:25:33.783Z,100158.00
2023-03-29T20:28:00.630Z,100150.06
2023-03-29T20:30:27.171Z,100146.63
2023-03-29T20:32:53.846Z,100150.06
2023-03-29T20:35:20.826Z,100151.13
2023-03-29T20:37:47.381Z,100143.44
2023-03-29T20:40:15.762Z,100144.50
2023-03-29T20:42:42.478Z,100140.31
2023-03-29T20:45:18.678Z,100137.66
2023-03-29T20:47:50.548Z,100129.91
2023-03-29T20:50:20.229Z,100136.03
2023-03-29T20:52:46.949Z,100125.53
2023-03-29T20:55:13.569Z,100129.19
2023-03-29T20:57:42.108Z,100120.47
2023-03-29T21:00:12.295Z,100118.78
2023-03-29T21:02:41.699Z,100110.84
2023-03-29T21:05:08.811Z,100115.09
2023-03-29T21:07:35.269Z,100103.94
2023-03-29T21:10:02.126Z,100104.78
2023-03-29T21:12:29.035Z,100099.59
2023-03-29T21:14:55.477Z,100096.13
2023-03-29T21:17:22.021Z,100090.81
2023-03-29T21:19:48.731Z,100096.78
2023-03-29T21:22:15.213Z,100088.03
2023-03-29T21:24:41.719Z,100079.53
2023-03-29T21:27:08.426Z,100073.56
2023-03-29T21:29:34.888Z,100070.84
2023-03-29T21:32:01.462Z,100054.34
2023-03-29T21:34:28.070Z,100058.72
2023-03-29T21:36:54.505Z,100064.84
2023-03-29T21:39:21.041Z,100059.72
2023-03-29T21:41:47.473Z,100058.72
2023-03-29T21:44:13.952Z,100056.09
2023-03-29T21:46:40.430Z,100050.19
2023-03-29T21:49:07.046Z,100051.91
2023-03-29T21:51:33.536Z,100040.31
2023-03-29T21:54:00.199Z,100032.56
2023-03-29T21:56:28.184Z,100027.38
2023-03-29T21:58:55.034Z,100035.06
2023-03-29T22:01:21.570Z,100043.84
2023-03-29T22:03:48.385Z,100049.22
2023-03-29T22:06:15.121Z,100053.66
2023-03-29T22:08:41.585Z,100057.22
2023-03-29T22:11:11.176Z,100061.47
2023-03-29T22:13:37.902Z,100057.09
2023-03-29T22:16:05.437Z,100059.84
2023-03-29T22:18:43.602Z,100058.28
2023-03-29T22:21:15.393Z,100053.09
2023-03-29T22:23:43.328Z,100054.03
2023-03-29T22:26:12.198Z,100052.25
2023-03-29T22:28:39.803Z,100055.78
2023-03-29T22:31:11.891Z,100051.53
2023-03-29T22:33:39.814Z,100047.31
2023-03-29T22:36:18.887Z,100041.94
2023-03-29T22:38:46.555Z,100035.63
2023-03-29T22:41:14.525Z,100033.88
2023-03-29T22:43:41.752Z,100024.38
2023-03-29T22:46:10.528Z,100023.56
2023-03-29T22:48:37.785Z,100032.34
2023-03-29T22:51:08.230Z,100032.31
2023-03-29T22:53:34.797Z,100027.19
2023-03-29T22:56:01.367Z,100022.00
2023-03-29T22:58:29.345Z,100015.06
2023-03-29T23:00:57.108Z,100012.50
2023-03-29T23:03:23.817Z,100016.94
2023-03-29T23:05:51.790Z,100013.59
2023-03-29T23:08:18.309Z,100013.75
2023-03-29T23:10:47.963Z,100016.44
2023-03-29T23:13:19.841Z,100010.31
2023-03-29T23:15:49.172Z,100013.97
2023-03-29T23:18:18.110Z,100007.94
2023-03-29T23:20:44.660Z,100009.75
2023-03-29T23:23:11.136Z,100007.16
2023-03-29T23:25:37.530Z,100002.88
2023-03-29T23:28:04.069Z,100003.91
2023-03-29T23:30:30.953Z,100000.53
2023-03-29T23:32:58.202Z,100002.22
2023-03-29T23:35:24.722Z,99996.91
2023-03-29T23:37:51.258Z,100000.31
2023-03-29T23:40:17.702Z,100000.47
2023-03-29T23:42:46.367Z,100004.72
2023-03-29T23:45:15.667Z,100002.16
2023-03-29T23:47:44.084Z,100001.16
2023-03-29T23:50:13.279Z,100002.94
2023-03-29T23:52:41.115Z,99996.03
2023-03-29T23:55:12.281Z,99990.81
2023-03-29T23:57:38.676Z,99983.09
